Latest Weather Observations for Sellicks Hill

IDS60801

Issued at 12:11 pm CST Wednesday 21 April 2021 (issued every 10 minutes, with the page automatically refreshed every 10 minutes)

About weather observations | Map of weather stations | Latest weather observations for SA | Other Formats
Station Details ID: 023886 Name: MOUNT TERRIBLE RADAR Lat: -35.33 Lon: 138.50 Height: 385.7 m
Data from the previous 72 hours. | See also: Recent months at Sellicks Hill
Date/Time
CST
Temp
°C
App
Temp
°C
Dew
Point
°C
Rel
Hum
%
Delta-T
°C
Wind Press
QNH
hPa
Press
MSL
hPa
Rain since
9am
mm
Dir  Spd
km/h
Gust
km/h
Spd
kts
Gust
kts
21/12:00pm - - - - - NNW 9 17 5 9 - - -
21/11:30am - - - - - N 9 19 5 10 - - -
21/11:00am - - - - - N 9 19 5 10 - - -
21/10:30am - - - - - N 9 15 5 8 - - -
21/10:00am - - - - - N 7 13 4 7 - - -
21/09:30am - - - - - N 7 15 4 8 - - -
21/09:00am - - - - - N 7 15 4 8 - - -
21/08:30am - - - - - N 6 15 3 8 - - -
21/08:00am - - - - - N 6 11 3 6 - - -
21/07:30am - - - - - N 4 6 2 3 - - -
21/07:00am - - - - - N 2 4 1 2 - - -
21/06:30am - - - - - N 2 6 1 3 - - -
21/06:00am - - - - - NNE 4 6 2 3 - - -
21/05:30am - - - - - E 4 9 2 5 - - -
21/05:00am - - - - - ESE 4 6 2 3 - - -
21/04:30am - - - - - ESE 4 6 2 3 - - -
21/04:00am - - - - - ESE 6 7 3 4 - - -
21/03:30am - - - - - SE 4 7 2 4 - - -
21/03:00am - - - - - SW 4 6 2 3 - - -
21/02:30am - - - - - SSW 2 6 1 3 - - -
21/02:00am - - - - - S 9 9 5 5 - - -
21/01:30am - - - - - S 11 13 6 7 - - -
21/01:00am - - - - - S 11 13 6 7 - - -
21/12:30am - - - - - S 13 13 7 7 - - -
21/12:00am - - - - - SSE 13 13 7 7 - - -
 
Date/Time
CST
Temp
°C
App
Temp
°C
Dew
Point
°C
Rel
Hum
%
Delta-T
°C
Wind Press
QNH
hPa
Press
MSL
hPa
Rain since
9am
mm
Dir  Spd
km/h
Gust
km/h
Spd
kts
Gust
kts
20/11:30pm - - - - - SSE 13 15 7 8 - - -
20/11:00pm - - - - - SSE 17 19 9 10 - - -
20/10:30pm - - - - - SSE 17 19 9 10 - - -
20/10:00pm - - - - - SSE 20 24 11 13 - - -
20/09:30pm - - - - - SSE 15 20 8 11 - - -
20/09:00pm - - - - - SSE 19 20 10 11 - - -
20/08:30pm - - - - - S 9 13 5 7 - - -
20/08:00pm - - - - - S 9 13 5 7 - - -
20/07:30pm - - - - - S 9 13 5 7 - - -
20/07:00pm - - - - - S 11 13 6 7 - - -
20/06:30pm - - - - - S 13 17 7 9 - - -
20/06:00pm - - - - - S 11 19 6 10 - - -
20/05:30pm - - - - - S 15 20 8 11 - - -
20/05:00pm - - - - - S 19 24 10 13 - - -
20/04:30pm - - - - - S 22 33 12 18 - - -
20/04:00pm - - - - - S 20 32 11 17 - - -
20/03:30pm - - - - - S 19 33 10 18 - - -
20/03:00pm - - - - - S 17 32 9 17 - - -
20/02:30pm - - - - - S 22 37 12 20 - - -
20/02:00pm - - - - - S 22 43 12 23 - - -
20/01:30pm - - - - - S 22 39 12 21 - - -
20/01:00pm - - - - - S 20 35 11 19 - - -
20/12:41pm - - - - - S 28 46 15 25 - - -
20/12:30pm - - - - - S 32 44 17 24 - - -
20/12:09pm - - - - - S 28 46 15 25 - - -
20/12:00pm - - - - - S 22 33 12 18 - - -
20/11:30am - - - - - S 33 43 18 23 - - -
20/11:00am - - - - - SSE 39 50 21 27 - - -
20/10:30am - - - - - S 35 44 19 24 - - -
20/10:00am - - - - - S 35 50 19 27 - - -
20/09:30am - - - - - S 39 48 21 26 - - -
20/09:00am - - - - - S 33 46 18 25 - - -
20/08:46am - - - - - S 28 46 15 25 - - -
20/08:30am - - - - - S 19 37 10 20 - - -
20/08:00am - - - - - NW 15 33 8 18 - - -
20/07:30am - - - - - NW 15 26 8 14 - - -
20/07:00am - - - - - NW 13 28 7 15 - - -
20/06:30am - - - - - NW 9 20 5 11 - - -
20/06:00am - - - - - NW 11 24 6 13 - - -
20/05:30am - - - - - NW 11 20 6 11 - - -
20/05:00am - - - - - NW 9 20 5 11 - - -
20/04:30am - - - - - NW 13 28 7 15 - - -
20/04:00am - - - - - NW 11 24 6 13 - - -
20/03:30am - - - - - NW 13 26 7 14 - - -
20/03:00am - - - - - NW 15 28 8 15 - - -
20/02:30am - - - - - NW 15 30 8 16 - - -
20/02:00am - - - - - NNW 15 24 8 13 - - -
20/01:30am - - - - - NW 15 24 8 13 - - -
20/01:00am - - - - - NW 13 26 7 14 - - -
20/12:30am - - - - - NW 13 20 7 11 - - -
20/12:00am - - - - - NNW 11 20 6 11 - - -
 
Date/Time
CST
Temp
°C
App
Temp
°C
Dew
Point
°C
Rel
Hum
%
Delta-T
°C
Wind Press
QNH
hPa
Press
MSL
hPa
Rain since
9am
mm
Dir  Spd
km/h
Gust
km/h
Spd
kts
Gust
kts
19/11:30pm - - - - - NNW 9 19 5 10 - - -
19/11:00pm - - - - - NNW 9 15 5 8 - - -
19/10:30pm - - - - - NW 7 19 4 10 - - -
19/10:00pm - - - - - NW 9 15 5 8 - - -
19/09:30pm - - - - - NW 7 15 4 8 - - -
19/09:00pm - - - - - WNW 6 11 3 6 - - -
19/08:30pm - - - - - NW 7 15 4 8 - - -
19/08:00pm - - - - - NW 6 11 3 6 - - -
19/07:30pm - - - - - NW 7 17 4 9 - - -
19/07:00pm - - - - - NNW 9 20 5 11 - - -
19/06:30pm - - - - - NNW 7 17 4 9 - - -
19/06:00pm - - - - - NNW 7 17 4 9 - - -
19/05:30pm - - - - - NW 9 20 5 11 - - -
19/05:00pm - - - - - NW 9 17 5 9 - - -
19/04:30pm - - - - - NW 9 20 5 11 - - -
19/04:00pm - - - - - NW 11 19 6 10 - - -
19/03:30pm - - - - - NW 11 22 6 12 - - -
19/03:00pm - - - - - NW 11 30 6 16 - - -
19/02:30pm - - - - - NNW 11 20 6 11 - - -
19/02:00pm - - - - - NW 13 24 7 13 - - -
19/01:30pm - - - - - NNW 13 26 7 14 - - -
19/01:00pm - - - - - NNW 15 26 8 14 - - -
19/12:30pm - - - - - NNW 15 26 8 14 - - -
19/12:00pm - - - - - NNW 15 30 8 16 - - -
19/11:30am - - - - - NNW 13 24 7 13 - - -
19/11:00am - - - - - NNW 11 20 6 11 - - -
19/10:30am - - - - - NNW 11 22 6 12 - - -
19/10:00am - - - - - NNW 11 19 6 10 - - -
19/09:30am - - - - - N 9 20 5 11 - - -
19/09:00am - - - - - N 6 9 3 5 - - -
19/08:30am - - - - - N 6 9 3 5 - - -
19/08:00am - - - - - N 7 11 4 6 - - -
19/07:30am - - - - - NNW 6 11 3 6 - - -
19/07:00am - - - - - NNW 7 11 4 6 - - -
19/06:30am - - - - - N 6 7 3 4 - - -
19/06:00am - - - - - N 2 6 1 3 - - -
19/05:30am - - - - - N 4 7 2 4 - - -
19/05:00am - - - - - NNW 4 6 2 3 - - -
19/04:30am - - - - - N 4 7 2 4 - - -
19/04:00am - - - - - N 4 6 2 3 - - -
19/03:30am - - - - - CALM 0 2 0 1 - - -
19/03:00am - - - - - NW 2 6 1 3 - - -
19/02:30am - - - - - W 2 6 1 3 - - -
19/02:00am - - - - - W 4 6 2 3 - - -
19/01:30am - - - - - SW 6 9 3 5 - - -
19/01:00am - - - - - SW 4 9 2 5 - - -
19/12:30am - - - - - SW 2 7 1 4 - - -
19/12:00am - - - - - WNW 2 9 1 5 - - -
 
Date/Time
CST
Temp
°C
App
Temp
°C
Dew
Point
°C
Rel
Hum
%
Delta-T
°C
Wind Press
QNH
hPa
Press
MSL
hPa
Rain since
9am
mm
Dir  Spd
km/h
Gust
km/h
Spd
kts
Gust
kts
18/11:30pm - - - - - SW 2 6 1 3 - - -
18/11:00pm - - - - - WSW 4 11 2 6 - - -
18/10:30pm - - - - - W 4 7 2 4 - - -
18/10:00pm - - - - - W 6 11 3 6 - - -
18/09:30pm - - - - - NW 2 6 1 3 - - -
18/09:00pm - - - - - NW 2 6 1 3 - - -
18/08:30pm - - - - - WNW 4 7 2 4 - - -
18/08:00pm - - - - - WNW 2 6 1 3 - - -
18/07:30pm - - - - - WSW 4 9 2 5 - - -
18/07:00pm - - - - - WNW 4 9 2 5 - - -
18/06:30pm - - - - - NW 4 7 2 4 - - -
18/06:00pm - - - - - W 4 7 2 4 - - -
18/05:30pm - - - - - NW 6 11 3 6 - - -
18/05:00pm - - - - - WNW 7 13 4 7 - - -
18/04:30pm - - - - - NW 6 11 3 6 - - -
18/04:00pm - - - - - WNW 7 15 4 8 - - -
18/03:30pm - - - - - WNW 6 11 3 6 - - -
18/03:00pm - - - - - NW 6 15 3 8 - - -
18/02:30pm - - - - - NW 7 15 4 8 - - -
18/02:00pm - - - - - WNW 7 15 4 8 - - -
18/01:30pm - - - - - W 7 15 4 8 - - -
18/01:00pm - - - - - NW 9 15 5 8 - - -
18/12:30pm - - - - - WNW 6 15 3 8 - - -

Other formats

Comma delimited format used in spreadsheet applications
http://www.bom.gov.au/fwo/IDS60801/IDS60801.95679.axf

JavaScript Object Notation format (JSON) in row-major order
http://www.bom.gov.au/fwo/IDS60801/IDS60801.95679.json

Data quality

Most of these data are generated automatically and are frequently updated. Quality checks on data are not normally performed. It is possible for incorrect values to appear. Refer to information at About Latest Weather Observations and please check the disclaimer before using these data.